createdAt,value
2022-10-12T00:00:40.084Z,99515.95
2022-10-12T00:02:01.897Z,99515.93
2022-10-12T00:03:03.613Z,99516.69
2022-10-12T00:04:05.285Z,99515.66
2022-10-12T00:05:07.246Z,99517.23
2022-10-12T00:06:12.615Z,99519.25
2022-10-12T00:07:14.415Z,99517.48
2022-10-12T00:08:16.196Z,99518.15
2022-10-12T00:09:17.845Z,99515.52
2022-10-12T00:10:19.599Z,99515.56
2022-10-12T00:11:27.377Z,99514.86
2022-10-12T00:12:29.069Z,99514.13
2022-10-12T00:13:31.160Z,99516.02
2022-10-12T00:14:36.926Z,99516.73
2022-10-12T00:15:42.100Z,99514.54
2022-10-12T00:16:43.780Z,99514.95
2022-10-12T00:17:45.420Z,99519.40
2022-10-12T00:18:51.930Z,99520.07
2022-10-12T00:19:53.562Z,99520.43
2022-10-12T00:21:06.238Z,99518.74
2022-10-12T00:22:07.905Z,99518.38
2022-10-12T00:23:10.055Z,99518.91
2022-10-12T00:24:11.754Z,99521.33
2022-10-12T00:25:13.483Z,99519.60
2022-10-12T00:26:16.683Z,99520.42
2022-10-12T00:27:18.387Z,99521.59
2022-10-12T00:28:20.126Z,99519.69
2022-10-12T00:29:22.528Z,99518.41
2022-10-12T00:30:24.184Z,99520.26
2022-10-12T00:31:27.891Z,99523.46
2022-10-12T00:32:29.549Z,99521.21
2022-10-12T00:33:31.188Z,99521.23
2022-10-12T00:34:32.943Z,99522.38
2022-10-12T00:35:34.577Z,99521.02
2022-10-12T00:36:36.374Z,99522.00
2022-10-12T00:37:38.234Z,99520.33
2022-10-12T00:38:40.227Z,99520.60
2022-10-12T00:39:41.855Z,99519.91
2022-10-12T00:40:43.474Z,99520.96
2022-10-12T00:41:45.147Z,99518.73
2022-10-12T00:42:49.105Z,99520.29
2022-10-12T00:43:57.647Z,99519.10
2022-10-12T00:45:00.253Z,99525.61
2022-10-12T00:46:11.410Z,99522.61
2022-10-12T00:47:41.257Z,99521.08
2022-10-12T00:48:48.032Z,99521.52
2022-10-12T00:50:00.791Z,99517.19
2022-10-12T00:51:04.253Z,99516.27
2022-10-12T00:52:12.033Z,99519.09
2022-10-12T00:53:21.649Z,99517.60
2022-10-12T00:54:31.961Z,99517.91
2022-10-12T00:55:40.313Z,99521.48
2022-10-12T00:56:47.040Z,99524.00
2022-10-12T00:57:52.912Z,99524.73
2022-10-12T00:58:57.319Z,99523.42
2022-10-12T01:00:07.740Z,99523.19
2022-10-12T01:01:10.573Z,99524.25
2022-10-12T01:02:13.841Z,99526.67
2022-10-12T01:03:23.054Z,99527.50
2022-10-12T01:04:25.977Z,99528.16
2022-10-12T01:05:28.482Z,99526.02
2022-10-12T01:06:31.712Z,99532.98
2022-10-12T01:07:33.381Z,99529.30
2022-10-12T01:08:38.050Z,99529.55
2022-10-12T01:09:40.390Z,99526.46
2022-10-12T01:10:42.184Z,99527.77
2022-10-12T01:11:44.129Z,99529.18
2022-10-12T01:12:48.656Z,99526.38
2022-10-12T01:13:50.344Z,99523.38
2022-10-12T01:14:52.088Z,99527.74
2022-10-12T01:16:22.005Z,99523.00
2022-10-12T01:17:36.008Z,99526.19
2022-10-12T01:19:16.377Z,99526.78
2022-10-12T01:20:45.631Z,99524.98
2022-10-12T01:22:02.285Z,99525.92
2022-10-12T01:23:22.491Z,99528.06
2022-10-12T01:24:45.933Z,99528.80
2022-10-12T01:25:50.523Z,99527.02
2022-10-12T01:27:03.809Z,99528.95
2022-10-12T01:28:23.514Z,99532.31
2022-10-12T01:29:46.639Z,99528.52
2022-10-12T01:30:59.330Z,99529.95
2022-10-12T01:32:22.450Z,99530.77
2022-10-12T01:33:37.745Z,99529.05
2022-10-12T01:34:52.057Z,99529.38
2022-10-12T01:36:18.978Z,99531.29
2022-10-12T01:37:51.366Z,99531.88
2022-10-12T01:39:07.487Z,99531.80
2022-10-12T01:40:16.200Z,99536.79
2022-10-12T01:41:32.311Z,99536.20
2022-10-12T01:42:40.218Z,99540.13
2022-10-12T01:43:43.862Z,99537.76
2022-10-12T01:44:45.488Z,99540.27
2022-10-12T01:45:47.392Z,99539.05
2022-10-12T01:46:52.021Z,99545.05
2022-10-12T01:47:55.551Z,99543.48
2022-10-12T01:49:01.350Z,99542.55
2022-10-12T01:50:07.401Z,99542.88
2022-10-12T01:51:12.941Z,99543.82
2022-10-12T01:52:37.028Z,99543.59
2022-10-12T01:54:09.581Z,99545.00
2022-10-12T01:55:23.702Z,99544.43
2022-10-12T01:56:53.484Z,99548.77
2022-10-12T01:58:08.291Z,99548.61
2022-10-12T01:59:34.672Z,99547.30
2022-10-12T02:00:55.425Z,99553.65
2022-10-12T02:02:27.204Z,99555.02
2022-10-12T02:03:45.327Z,99552.17
2022-10-12T02:05:00.400Z,99550.54
2022-10-12T02:06:15.275Z,99553.91
2022-10-12T02:07:27.335Z,99553.36
2022-10-12T02:08:40.878Z,99551.31
2022-10-12T02:09:44.325Z,99549.67
2022-10-12T02:11:07.926Z,99551.53
2022-10-12T02:12:20.646Z,99550.01
2022-10-12T02:13:29.344Z,99554.44
2022-10-12T02:14:40.692Z,99550.42
2022-10-12T02:15:44.994Z,99556.34
2022-10-12T02:16:54.215Z,99554.23
2022-10-12T02:17:58.012Z,99557.67
2022-10-12T02:19:00.649Z,99550.52
2022-10-12T02:20:04.458Z,99551.00
2022-10-12T02:21:09.888Z,99552.78
2022-10-12T02:22:15.353Z,99553.70
2022-10-12T02:23:19.691Z,99552.30
2022-10-12T02:24:26.551Z,99550.99
2022-10-12T02:25:32.553Z,99548.93
2022-10-12T02:26:40.843Z,99549.45
2022-10-12T02:27:50.185Z,99550.46
2022-10-12T02:28:52.103Z,99548.20
2022-10-12T02:29:59.666Z,99550.33
2022-10-12T02:31:31.758Z,99546.11
2022-10-12T02:33:03.612Z,99549.69
2022-10-12T02:34:10.728Z,99548.30
2022-10-12T02:36:07.800Z,99549.36
2022-10-12T02:37:26.800Z,99546.33
2022-10-12T02:38:37.969Z,99552.77
2022-10-12T02:39:50.384Z,99549.45
2022-10-12T02:41:02.595Z,99553.84
2022-10-12T02:42:11.267Z,99549.73
2022-10-12T02:43:19.963Z,99554.41
2022-10-12T02:44:29.163Z,99551.89
2022-10-12T02:45:35.064Z,99552.80
2022-10-12T02:46:40.752Z,99553.39
2022-10-12T02:47:46.844Z,99553.52
2022-10-12T02:48:50.481Z,99554.80
2022-10-12T02:49:55.770Z,99553.05
2022-10-12T02:51:00.685Z,99554.59
2022-10-12T02:52:04.969Z,99553.95
2022-10-12T02:53:08.519Z,99549.98
2022-10-12T02:54:10.509Z,99550.20
2022-10-12T02:55:12.387Z,99558.00
2022-10-12T02:56:15.907Z,99559.58
2022-10-12T02:57:18.148Z,99557.52
2022-10-12T02:58:20.095Z,99553.45
2022-10-12T02:59:21.894Z,99555.89
2022-10-12T03:00:23.570Z,99555.98
2022-10-12T03:01:25.338Z,99552.42
2022-10-12T03:02:27.025Z,99555.61
2022-10-12T03:03:28.916Z,99555.61
2022-10-12T03:04:30.595Z,99552.66
2022-10-12T03:05:32.268Z,99552.20
2022-10-12T03:06:34.005Z,99552.53
2022-10-12T03:07:36.304Z,99555.95
2022-10-12T03:08:38.543Z,99555.99
2022-10-12T03:09:40.176Z,99556.98
2022-10-12T03:10:41.845Z,99554.26
2022-10-12T03:11:46.318Z,99554.09
2022-10-12T03:12:50.370Z,99554.20
2022-10-12T03:13:54.145Z,99554.48
2022-10-12T03:14:55.770Z,99552.42
2022-10-12T03:16:05.211Z,99551.98
2022-10-12T03:17:06.945Z,99547.78
2022-10-12T03:18:08.786Z,99550.78
2022-10-12T03:19:10.549Z,99550.20
2022-10-12T03:20:12.490Z,99550.17
2022-10-12T03:21:14.198Z,99548.23
2022-10-12T03:22:15.900Z,99548.88
2022-10-12T03:23:17.734Z,99548.59
2022-10-12T03:24:19.356Z,99552.95
2022-10-12T03:25:21.076Z,99552.84
2022-10-12T03:26:23.177Z,99553.24
2022-10-12T03:27:24.984Z,99556.29
2022-10-12T03:28:26.858Z,99556.21
2022-10-12T03:29:28.513Z,99556.19
2022-10-12T03:30:30.297Z,99558.54
2022-10-12T03:31:32.045Z,99557.95
2022-10-12T03:32:33.800Z,99556.95
2022-10-12T03:33:35.521Z,99554.67
2022-10-12T03:34:37.304Z,99554.80
2022-10-12T03:35:39.978Z,99554.80
2022-10-12T03:36:41.633Z,99553.26
2022-10-12T03:37:43.351Z,99551.92
2022-10-12T03:38:45.038Z,99548.88
2022-10-12T03:39:46.688Z,99550.92
2022-10-12T03:40:48.354Z,99548.75
2022-10-12T03:41:50.009Z,99549.87
2022-10-12T03:42:51.683Z,99553.58
2022-10-12T03:43:53.430Z,99550.70
2022-10-12T03:44:55.066Z,99550.29
2022-10-12T03:45:56.721Z,99548.77
2022-10-12T03:46:58.486Z,99547.95
2022-10-12T03:48:04.659Z,99551.95
2022-10-12T03:49:07.188Z,99550.18
2022-10-12T03:50:09.312Z,99551.46
2022-10-12T03:51:11.032Z,99550.59
2022-10-12T03:52:12.717Z,99547.84
2022-10-12T03:53:14.519Z,99551.91
2022-10-12T03:54:16.333Z,99550.52
2022-10-12T03:55:18.304Z,99548.13
2022-10-12T03:56:20.005Z,99550.56
2022-10-12T03:57:21.627Z,99553.69
2022-10-12T03:58:23.320Z,99554.92
2022-10-12T03:59:25.016Z,99553.61
2022-10-12T04:00:28.096Z,99558.71
2022-10-12T04:01:29.816Z,99555.78
2022-10-12T04:02:31.569Z,99557.81
2022-10-12T04:03:33.226Z,99560.56
2022-10-12T04:04:35.418Z,99560.94
2022-10-12T04:05:37.056Z,99559.83
2022-10-12T04:06:38.768Z,99560.90
2022-10-12T04:07:40.673Z,99559.80
2022-10-12T04:08:47.143Z,99559.23
2022-10-12T04:09:52.294Z,99563.08
2022-10-12T04:10:54.672Z,99561.06
2022-10-12T04:11:56.345Z,99561.53
2022-10-12T04:12:58.942Z,99562.98
2022-10-12T04:14:00.670Z,99560.23
2022-10-12T04:15:02.478Z,99560.28
2022-10-12T04:16:06.329Z,99562.48
2022-10-12T04:17:08.006Z,99558.33
2022-10-12T04:18:09.674Z,99558.85
2022-10-12T04:19:15.115Z,99559.92
2022-10-12T04:20:16.820Z,99559.15
2022-10-12T04:21:22.563Z,99557.80
2022-10-12T04:22:24.919Z,99559.94
2022-10-12T04:23:27.086Z,99561.14
2022-10-12T04:24:28.756Z,99560.77
2022-10-12T04:25:30.549Z,99558.33
2022-10-12T04:26:32.437Z,99560.44
2022-10-12T04:27:34.251Z,99560.26
2022-10-12T04:28:36.115Z,99559.08
2022-10-12T04:29:38.070Z,99565.04
2022-10-12T04:30:39.723Z,99566.40
2022-10-12T04:31:42.460Z,99564.66
2022-10-12T04:32:44.385Z,99566.63
2022-10-12T04:33:46.014Z,99564.16
2022-10-12T04:34:47.637Z,99568.65
2022-10-12T04:35:49.319Z,99566.01
2022-10-12T04:36:50.992Z,99568.52
2022-10-12T04:37:52.621Z,99569.69
2022-10-12T04:38:59.951Z,99570.13
2022-10-12T04:40:03.251Z,99576.16
2022-10-12T04:41:05.823Z,99575.67
2022-10-12T04:42:07.492Z,99573.58
2022-10-12T04:43:09.168Z,99570.27
2022-10-12T04:44:10.834Z,99571.64
2022-10-12T04:45:12.498Z,99573.79
2022-10-12T04:46:14.314Z,99572.13
2022-10-12T04:47:16.064Z,99574.52
2022-10-12T04:48:17.682Z,99570.49
2022-10-12T04:49:19.564Z,99574.27
2022-10-12T04:50:23.409Z,99573.60
2022-10-12T04:51:28.206Z,99574.59
2022-10-12T04:52:29.890Z,99577.72
2022-10-12T04:53:31.676Z,99575.82
2022-10-12T04:54:33.648Z,99576.42
2022-10-12T04:55:37.548Z,99577.61
2022-10-12T04:56:40.060Z,99576.27
2022-10-12T04:57:43.951Z,99579.67
2022-10-12T04:58:45.691Z,99579.27
2022-10-12T04:59:47.551Z,99579.79
2022-10-12T05:00:49.598Z,99579.64
2022-10-12T05:01:51.321Z,99576.25
2022-10-12T05:02:53.080Z,99576.67
2022-10-12T05:03:54.812Z,99578.34
2022-10-12T05:04:56.582Z,99575.41
2022-10-12T05:05:58.240Z,99574.63
2022-10-12T05:06:59.887Z,99574.55
2022-10-12T05:08:03.578Z,99574.22
2022-10-12T05:09:05.584Z,99574.10
2022-10-12T05:10:07.875Z,99576.98
2022-10-12T05:11:09.516Z,99573.81
2022-10-12T05:12:11.189Z,99575.09
2022-10-12T05:13:13.867Z,99576.98
2022-10-12T05:14:15.645Z,99573.68
2022-10-12T05:15:17.331Z,99577.71
2022-10-12T05:16:19.000Z,99574.00
2022-10-12T05:17:20.669Z,99578.92
2022-10-12T05:18:22.394Z,99579.77
2022-10-12T05:19:24.434Z,99580.92
2022-10-12T05:20:26.430Z,99579.74
2022-10-12T05:21:28.080Z,99579.61
2022-10-12T05:22:31.200Z,99584.04
2022-10-12T05:23:33.390Z,99584.08
2022-10-12T05:24:35.052Z,99587.77
2022-10-12T05:25:37.078Z,99587.68
2022-10-12T05:26:38.724Z,99587.83
2022-10-12T05:27:40.655Z,99588.54
2022-10-12T05:28:42.584Z,99589.48
2022-10-12T05:29:44.226Z,99588.70
2022-10-12T05:30:51.163Z,99590.14
2022-10-12T05:31:53.424Z,99592.13
2022-10-12T05:32:55.148Z,99594.14
2022-10-12T05:33:56.976Z,99592.79
2022-10-12T05:34:58.940Z,99591.05
2022-10-12T05:36:00.724Z,99593.06
2022-10-12T05:37:02.659Z,99594.29
2022-10-12T05:38:04.286Z,99595.29
2022-10-12T05:39:06.170Z,99596.64
2022-10-12T05:40:08.223Z,99592.48
2022-10-12T05:41:09.980Z,99593.61
2022-10-12T05:42:11.621Z,99590.09
2022-10-12T05:43:13.274Z,99593.63
2022-10-12T05:44:14.898Z,99593.42
2022-10-12T05:45:17.054Z,99592.73
2022-10-12T05:46:18.849Z,99598.08
2022-10-12T05:47:20.530Z,99594.08
2022-10-12T05:48:22.281Z,99598.90
2022-10-12T05:49:23.992Z,99595.33
2022-10-12T05:50:25.705Z,99595.99
2022-10-12T05:51:29.101Z,99598.02
2022-10-12T05:52:30.914Z,99599.30
2022-10-12T05:53:32.770Z,99598.36
2022-10-12T05:54:34.490Z,99598.96
2022-10-12T05:55:36.112Z,99598.20
2022-10-12T05:56:37.814Z,99600.41
2022-10-12T05:57:40.105Z,99601.50
2022-10-12T05:58:42.347Z,99601.35
2022-10-12T05:59:43.975Z,99599.89
2022-10-12T06:00:45.935Z,99597.94
2022-10-12T06:01:48.274Z,99598.05
2022-10-12T06:02:50.113Z,99597.79
2022-10-12T06:03:51.975Z,99595.08
2022-10-12T06:04:53.645Z,99593.09
2022-10-12T06:05:55.480Z,99594.42
2022-10-12T06:06:57.210Z,99596.27
2022-10-12T06:07:58.942Z,99597.23
2022-10-12T06:09:00.712Z,99596.73
2022-10-12T06:10:02.521Z,99595.88
2022-10-12T06:11:04.551Z,99597.95
2022-10-12T06:12:07.595Z,99597.11
2022-10-12T06:13:09.262Z,99595.92
2022-10-12T06:14:10.910Z,99597.92
2022-10-12T06:15:12.519Z,99599.73
2022-10-12T06:16:14.193Z,99603.44
2022-10-12T06:17:15.931Z,99600.11
2022-10-12T06:18:18.395Z,99603.77
2022-10-12T06:19:20.033Z,99602.80
2022-10-12T06:20:21.786Z,99604.63
2022-10-12T06:21:38.737Z,99604.98
2022-10-12T06:22:40.902Z,99610.20
2022-10-12T06:23:42.685Z,99609.15
2022-10-12T06:24:48.669Z,99613.79
2022-10-12T06:25:52.298Z,99615.23
2022-10-12T06:26:54.323Z,99614.27
2022-10-12T06:27:56.544Z,99616.67
2022-10-12T06:29:00.554Z,99616.77
2022-10-12T06:30:02.306Z,99617.36
2022-10-12T06:31:04.533Z,99617.51
2022-10-12T06:32:06.166Z,99617.59
2022-10-12T06:33:08.144Z,99617.72
2022-10-12T06:34:09.786Z,99618.21
2022-10-12T06:35:11.488Z,99618.03
2022-10-12T06:36:13.137Z,99618.52
2022-10-12T06:37:37.168Z,99620.48
2022-10-12T06:38:36.676Z,99622.98
2022-10-12T06:39:38.383Z,99623.66
2022-10-12T06:40:40.044Z,99623.45
2022-10-12T06:41:41.810Z,99623.45
2022-10-12T06:42:43.500Z,99622.25
2022-10-12T06:43:45.340Z,99623.54
2022-10-12T06:44:46.962Z,99621.72
2022-10-12T06:45:49.001Z,99623.13
2022-10-12T06:46:50.678Z,99621.67
2022-10-12T06:47:52.301Z,99624.17
2022-10-12T06:48:53.966Z,99625.44
2022-10-12T06:49:55.607Z,99621.52
2022-10-12T06:50:57.294Z,99622.07
2022-10-12T06:51:59.066Z,99619.20
2022-10-12T06:53:00.787Z,99618.94
2022-10-12T06:54:02.640Z,99620.55
2022-10-12T06:55:05.905Z,99622.81
2022-10-12T06:56:09.322Z,99619.32
2022-10-12T06:57:11.060Z,99620.39
2022-10-12T06:58:12.804Z,99624.41
2022-10-12T06:59:14.683Z,99619.21
2022-10-12T07:00:17.064Z,99622.48
2022-10-12T07:01:18.713Z,99620.67
2022-10-12T07:02:20.333Z,99618.84
2022-10-12T07:03:22.029Z,99616.83
2022-10-12T07:04:24.004Z,99619.13
2022-10-12T07:05:25.709Z,99617.84
2022-10-12T07:06:27.361Z,99618.34
2022-10-12T07:07:33.732Z,99616.63
2022-10-12T07:08:36.100Z,99618.17
2022-10-12T07:09:37.707Z,99620.14
2022-10-12T07:10:39.683Z,99620.80
2022-10-12T07:11:41.371Z,99620.55
2022-10-12T07:12:43.210Z,99621.38
2022-10-12T07:13:44.852Z,99622.45
2022-10-12T07:14:46.579Z,99623.04
2022-10-12T07:15:51.082Z,99625.35
2022-10-12T07:16:55.231Z,99624.23
2022-10-12T07:17:57.271Z,99626.77
2022-10-12T07:18:58.925Z,99626.58
2022-10-12T07:20:00.609Z,99626.55
2022-10-12T07:21:03.688Z,99625.71
2022-10-12T07:22:05.616Z,99632.12
2022-10-12T07:23:07.269Z,99631.40
2022-10-12T07:24:12.275Z,99631.20
2022-10-12T07:25:14.015Z,99629.59
2022-10-12T07:26:15.645Z,99629.79
2022-10-12T07:27:17.308Z,99628.96
2022-10-12T07:28:20.485Z,99631.34
2022-10-12T07:29:22.139Z,99629.97
2022-10-12T07:30:23.888Z,99631.27
2022-10-12T07:31:25.830Z,99636.80
2022-10-12T07:32:27.467Z,99633.61
2022-10-12T07:33:32.839Z,99634.16
2022-10-12T07:34:34.860Z,99635.51
2022-10-12T07:35:51.446Z,99632.68
2022-10-12T07:37:00.002Z,99627.40
2022-10-12T07:38:02.655Z,99628.69
2022-10-12T07:39:04.305Z,99622.99
2022-10-12T07:40:06.719Z,99627.91
2022-10-12T07:41:08.747Z,99628.13
2022-10-12T07:42:14.379Z,99622.21
2022-10-12T07:43:18.473Z,99627.71
2022-10-12T07:44:21.199Z,99623.25
2022-10-12T07:45:23.115Z,99620.30
2022-10-12T07:46:25.955Z,99622.81
2022-10-12T07:47:27.551Z,99622.05
2022-10-12T07:48:29.318Z,99620.11
2022-10-12T07:49:30.994Z,99620.67
2022-10-12T07:50:32.635Z,99621.30
2022-10-12T07:51:34.641Z,99622.38
2022-10-12T07:52:36.335Z,99622.63
2022-10-12T07:53:39.601Z,99624.21
2022-10-12T07:54:41.235Z,99621.24
2022-10-12T07:55:42.854Z,99619.61
2022-10-12T07:56:44.526Z,99623.10
2022-10-12T07:57:46.119Z,99623.96
2022-10-12T07:58:53.671Z,99620.79
2022-10-12T07:59:55.636Z,99622.17
2022-10-12T08:01:03.773Z,99617.12
2022-10-12T08:02:05.649Z,99619.98
2022-10-12T08:03:07.532Z,99619.71
2022-10-12T08:04:09.716Z,99621.67
2022-10-12T08:05:11.330Z,99618.58
2022-10-12T08:06:16.414Z,99616.77
2022-10-12T08:07:18.110Z,99621.81
2022-10-12T08:08:19.724Z,99622.17
2022-10-12T08:09:21.592Z,99622.13
2022-10-12T08:10:23.221Z,99618.77
2022-10-12T08:11:25.166Z,99622.09
2022-10-12T08:12:26.857Z,99615.92
2022-10-12T08:13:28.541Z,99620.95
2022-10-12T08:14:30.758Z,99621.74
2022-10-12T08:15:32.384Z,99623.21
2022-10-12T08:16:34.627Z,99624.45
2022-10-12T08:17:36.413Z,99622.08
2022-10-12T08:18:38.342Z,99621.48
2022-10-12T08:19:40.623Z,99625.18
2022-10-12T08:20:42.257Z,99623.09
2022-10-12T08:21:43.963Z,99622.39
2022-10-12T08:22:45.658Z,99620.39
2022-10-12T08:23:47.558Z,99624.16
2022-10-12T08:24:49.518Z,99622.70
2022-10-12T08:25:56.510Z,99621.27
2022-10-12T08:27:01.393Z,99620.23
2022-10-12T08:28:04.371Z,99618.92
2022-10-12T08:29:08.114Z,99623.05
2022-10-12T08:30:10.301Z,99617.79
2022-10-12T08:31:14.957Z,99617.77
2022-10-12T08:32:16.614Z,99618.02
2022-10-12T08:33:19.259Z,99622.45
2022-10-12T08:34:21.200Z,99620.48
2022-10-12T08:35:22.982Z,99621.13
2022-10-12T08:36:25.062Z,99621.71
2022-10-12T08:37:26.671Z,99623.80
2022-10-12T08:38:28.312Z,99627.05
2022-10-12T08:39:30.183Z,99625.56
2022-10-12T08:40:41.922Z,99626.79
2022-10-12T08:41:58.828Z,99628.71
2022-10-12T08:43:19.718Z,99624.58
2022-10-12T08:45:02.202Z,99628.69
2022-10-12T08:46:05.984Z,99626.16
2022-10-12T08:47:21.133Z,99626.08
2022-10-12T08:48:46.854Z,99626.53
2022-10-12T08:49:50.951Z,99625.29
2022-10-12T08:51:16.762Z,99626.23
2022-10-12T08:52:28.699Z,99623.42
2022-10-12T08:53:55.478Z,99624.51
2022-10-12T08:55:06.927Z,99625.23
2022-10-12T08:56:09.327Z,99620.98
2022-10-12T08:57:19.287Z,99626.02
2022-10-12T08:58:31.236Z,99624.55
2022-10-12T08:59:33.490Z,99626.34
2022-10-12T09:00:35.359Z,99624.41
2022-10-12T09:01:51.578Z,99628.19
2022-10-12T09:03:14.041Z,99628.08
2022-10-12T09:04:37.637Z,99628.66
2022-10-12T09:05:53.397Z,99626.69
2022-10-12T09:07:34.932Z,99631.29
2022-10-12T09:09:13.740Z,99623.22
2022-10-12T09:10:33.626Z,99621.57
2022-10-12T09:11:46.054Z,99621.13
2022-10-12T09:13:13.161Z,99621.80
2022-10-12T09:14:24.799Z,99618.46
2022-10-12T09:15:39.175Z,99619.48
2022-10-12T09:16:47.878Z,99620.33
2022-10-12T09:17:54.398Z,99619.75
2022-10-12T09:19:03.628Z,99619.11
2022-10-12T09:20:15.198Z,99623.72
2022-10-12T09:21:19.594Z,99621.23
2022-10-12T09:22:21.246Z,99619.99
2022-10-12T09:23:26.913Z,99623.23
2022-10-12T09:24:36.034Z,99621.12
2022-10-12T09:25:39.034Z,99622.39
2022-10-12T09:26:40.908Z,99622.84
2022-10-12T09:27:46.991Z,99618.80
2022-10-12T09:28:54.197Z,99621.79
2022-10-12T09:30:01.085Z,99621.71
2022-10-12T09:31:42.125Z,99623.65
2022-10-12T09:33:05.681Z,99625.70
2022-10-12T09:34:09.707Z,99621.75
2022-10-12T09:35:14.382Z,99625.36
2022-10-12T09:36:20.779Z,99625.81
2022-10-12T09:37:27.939Z,99626.42
2022-10-12T09:38:29.642Z,99630.94
2022-10-12T09:39:35.910Z,99628.45
2022-10-12T09:40:39.073Z,99627.54
2022-10-12T09:41:43.770Z,99627.83
2022-10-12T09:42:47.216Z,99634.10
2022-10-12T09:43:53.742Z,99633.73
2022-10-12T09:45:02.099Z,99632.48
2022-10-12T09:46:10.400Z,99630.16
2022-10-12T09:47:20.866Z,99629.84
2022-10-12T09:48:24.712Z,99629.48
2022-10-12T09:49:43.330Z,99628.89
2022-10-12T09:50:57.933Z,99630.23
2022-10-12T09:52:00.420Z,99632.58
2022-10-12T09:53:02.151Z,99632.85
2022-10-12T09:54:05.831Z,99633.69
2022-10-12T09:55:14.663Z,99635.59
2022-10-12T09:56:32.334Z,99629.63
2022-10-12T09:57:37.776Z,99631.80
2022-10-12T09:59:02.148Z,99627.95
2022-10-12T10:00:25.378Z,99632.10
2022-10-12T10:01:29.338Z,99632.80
2022-10-12T10:02:31.578Z,99634.92
2022-10-12T10:03:33.366Z,99636.06
2022-10-12T10:04:35.330Z,99631.77
2022-10-12T10:05:38.598Z,99631.52
2022-10-12T10:06:43.817Z,99634.83
2022-10-12T10:07:45.488Z,99634.87
2022-10-12T10:08:47.248Z,99635.57
2022-10-12T10:10:08.150Z,99627.20
2022-10-12T10:11:21.496Z,99628.82
2022-10-12T10:12:25.616Z,99631.21
2022-10-12T10:13:31.744Z,99633.56
2022-10-12T10:14:35.954Z,99631.73
2022-10-12T10:15:39.284Z,99635.09
2022-10-12T10:16:50.523Z,99632.86
2022-10-12T10:17:56.814Z,99631.52
2022-10-12T10:19:02.306Z,99632.55
2022-10-12T10:20:08.345Z,99632.87
2022-10-12T10:21:15.107Z,99633.89
2022-10-12T10:22:17.723Z,99633.45
2022-10-12T10:23:45.084Z,99630.18
2022-10-12T10:24:56.377Z,99633.13
2022-10-12T10:26:15.836Z,99629.50
2022-10-12T10:27:36.954Z,99633.84
2022-10-12T10:28:41.285Z,99634.17
2022-10-12T10:29:43.747Z,99631.28
2022-10-12T10:31:02.399Z,99630.70
2022-10-12T10:32:14.718Z,99627.58
2022-10-12T10:33:19.216Z,99622.67
2022-10-12T10:34:25.478Z,99623.39
2022-10-12T10:35:27.183Z,99622.91
2022-10-12T10:36:29.193Z,99620.48
2022-10-12T10:37:32.669Z,99617.10
2022-10-12T10:38:57.265Z,99619.00
2022-10-12T10:40:00.395Z,99617.97
2022-10-12T10:41:06.887Z,99614.63
2022-10-12T10:42:28.373Z,99616.23
2022-10-12T10:43:32.264Z,99611.20
2022-10-12T10:44:36.403Z,99611.52
2022-10-12T10:45:50.950Z,99608.64
2022-10-12T10:46:55.612Z,99612.13
2022-10-12T10:48:04.109Z,99609.48
2022-10-12T10:49:08.789Z,99607.99
2022-10-12T10:50:35.383Z,99612.42
2022-10-12T10:51:44.581Z,99609.04
2022-10-12T10:52:56.937Z,99613.58
2022-10-12T10:54:14.387Z,99617.16
2022-10-12T10:55:42.068Z,99612.85
2022-10-12T10:56:46.570Z,99615.21
2022-10-12T10:57:59.579Z,99616.23
2022-10-12T10:59:21.097Z,99615.23
2022-10-12T11:00:38.710Z,99620.27
2022-10-12T11:01:57.745Z,99617.86
2022-10-12T11:03:11.940Z,99617.92
2022-10-12T11:04:25.785Z,99617.47
2022-10-12T11:05:32.593Z,99615.61
2022-10-12T11:06:44.325Z,99615.66
2022-10-12T11:07:56.133Z,99616.95
2022-10-12T11:09:19.790Z,99614.04
2022-10-12T11:10:21.589Z,99614.62
2022-10-12T11:11:29.234Z,99611.56
2022-10-12T11:12:40.944Z,99612.95
2022-10-12T11:13:55.662Z,99607.92
2022-10-12T11:15:08.283Z,99604.94
2022-10-12T11:16:34.144Z,99603.37
2022-10-12T11:17:46.127Z,99594.80
2022-10-12T11:18:57.762Z,99598.00
2022-10-12T11:20:34.261Z,99594.52
2022-10-12T11:21:47.190Z,99593.71
2022-10-12T11:23:14.790Z,99595.01
2022-10-12T11:24:32.512Z,99593.69
2022-10-12T11:25:48.305Z,99592.55
2022-10-12T11:27:09.344Z,99591.36
2022-10-12T11:28:16.076Z,99589.20
2022-10-12T11:29:18.283Z,99585.38
2022-10-12T11:30:26.841Z,99584.42
2022-10-12T11:31:38.060Z,99584.92
2022-10-12T11:33:01.673Z,99583.16
2022-10-12T11:34:13.275Z,99585.33
2022-10-12T11:35:43.754Z,99584.16
2022-10-12T11:37:14.822Z,99585.50
2022-10-12T11:38:38.322Z,99582.29
2022-10-12T11:39:46.552Z,99579.16
2022-10-12T11:41:34.343Z,99579.98
2022-10-12T11:42:43.546Z,99574.88
2022-10-12T11:43:50.032Z,99572.77
2022-10-12T11:44:51.970Z,99573.35
2022-10-12T11:46:03.010Z,99568.45
2022-10-12T11:47:27.449Z,99571.80
2022-10-12T11:48:39.594Z,99567.45
2022-10-12T11:50:05.543Z,99567.73
2022-10-12T11:51:07.705Z,99566.05
2022-10-12T11:52:12.207Z,99565.89
2022-10-12T11:53:35.411Z,99563.25
2022-10-12T11:54:54.821Z,99570.56
2022-10-12T11:56:27.849Z,99564.86
2022-10-12T11:57:36.836Z,99564.95
2022-10-12T11:59:01.539Z,99565.85
2022-10-12T12:00:19.343Z,99564.73
2022-10-12T12:01:46.320Z,99570.14
2022-10-12T12:03:02.889Z,99567.86
2022-10-12T12:05:43.176Z,99572.92
2022-10-12T12:06:44.683Z,99573.38
2022-10-12T12:07:49.081Z,99576.14
2022-10-12T12:08:50.581Z,99578.81
2022-10-12T12:09:52.692Z,99579.38
2022-10-12T12:11:05.987Z,99578.08
2022-10-12T12:12:20.526Z,99574.62
2022-10-12T12:13:26.781Z,99571.00
2022-10-12T12:14:28.281Z,99575.59
2022-10-12T12:15:29.979Z,99575.64
2022-10-12T12:16:32.999Z,99577.23
2022-10-12T12:17:35.692Z,99574.11
2022-10-12T12:19:13.634Z,99576.05
2022-10-12T12:20:46.734Z,99573.91
2022-10-12T12:22:14.401Z,99574.45
2022-10-12T12:23:33.005Z,99575.06
2022-10-12T12:24:38.956Z,99574.86
2022-10-12T12:25:40.835Z,99572.38
2022-10-12T12:26:47.837Z,99571.05
2022-10-12T12:27:58.653Z,99569.05
2022-10-12T12:29:24.839Z,99564.88
2022-10-12T12:30:36.962Z,99569.95
2022-10-12T12:31:39.163Z,99566.87
2022-10-12T12:32:47.219Z,99568.34
2022-10-12T12:34:00.512Z,99565.90
2022-10-12T12:35:02.353Z,99564.88
2022-10-12T12:36:27.431Z,99564.77
2022-10-12T12:37:34.768Z,99568.95
2022-10-12T12:38:47.096Z,99569.77
2022-10-12T12:39:56.524Z,99568.63
2022-10-12T12:41:03.351Z,99565.48
2022-10-12T12:42:09.454Z,99565.80
2022-10-12T12:43:21.149Z,99565.48
2022-10-12T12:44:37.996Z,99567.53
2022-10-12T12:45:54.298Z,99565.47
2022-10-12T12:46:55.781Z,99572.42
2022-10-12T12:47:57.518Z,99571.64
2022-10-12T12:49:01.428Z,99571.54
2022-10-12T12:50:35.493Z,99571.03
2022-10-12T12:51:40.915Z,99571.39
2022-10-12T12:52:43.204Z,99571.61
2022-10-12T12:53:52.428Z,99569.75
2022-10-12T12:55:21.940Z,99572.69
2022-10-12T12:56:49.663Z,99569.70
2022-10-12T12:58:15.757Z,99568.55
2022-10-12T12:59:46.585Z,99567.90
2022-10-12T13:01:04.550Z,99565.46
2022-10-12T13:02:27.685Z,99566.27
2022-10-12T13:03:50.516Z,99563.66
2022-10-12T13:04:58.142Z,99561.83
2022-10-12T13:06:33.660Z,99562.73
2022-10-12T13:08:04.135Z,99560.45
2022-10-12T13:09:23.034Z,99561.70
2022-10-12T13:10:40.525Z,99561.52